sensor_id;sensor_type;location;lat;lon;timestamp;temperature;humidity
16955;DHT22;8594;52.052;8.354;2024-03-02T00:01:22;8.50;99.90
16955;DHT22;8594;52.052;8.354;2024-03-02T00:03:49;8.60;99.90
16955;DHT22;8594;52.052;8.354;2024-03-02T00:06:18;8.40;99.90
16955;DHT22;8594;52.052;8.354;2024-03-02T00:08:46;8.40;99.90
16955;DHT22;8594;52.052;8.354;2024-03-02T00:11:14;8.30;99.90
16955;DHT22;8594;52.052;8.354;2024-03-02T00:13:41;8.30;99.90
16955;DHT22;8594;52.052;8.354;2024-03-02T00:16:08;8.40;99.90
16955;DHT22;8594;52.052;8.354;2024-03-02T00:18:36;8.30;99.90
16955;DHT22;8594;52.052;8.354;2024-03-02T00:21:06;8.30;99.90
16955;DHT22;8594;52.052;8.354;2024-03-02T00:23:35;8.30;99.90
16955;DHT22;8594;52.052;8.354;2024-03-02T00:26:02;8.40;99.90
16955;DHT22;8594;52.052;8.354;2024-03-02T00:28:33;8.30;99.90
16955;DHT22;8594;52.052;8.354;2024-03-02T00:31:03;8.30;99.90
16955;DHT22;8594;52.052;8.354;2024-03-02T00:33:32;8.30;99.90
16955;DHT22;8594;52.052;8.354;2024-03-02T00:36:00;8.40;99.90
16955;DHT22;8594;52.052;8.354;2024-03-02T00:38:28;8.30;99.90
16955;DHT22;8594;52.052;8.354;2024-03-02T00:40:56;8.20;99.90
16955;DHT22;8594;52.052;8.354;2024-03-02T00:43:47;8.20;99.90
16955;DHT22;8594;52.052;8.354;2024-03-02T00:46:21;8.20;99.90
16955;DHT22;8594;52.052;8.354;2024-03-02T00:48:52;8.10;99.90
16955;DHT22;8594;52.052;8.354;2024-03-02T00:51:22;8.00;99.90
16955;DHT22;8594;52.052;8.354;2024-03-02T00:53:49;8.10;99.90
16955;DHT22;8594;52.052;8.354;2024-03-02T00:56:18;8.20;99.90
16955;DHT22;8594;52.052;8.354;2024-03-02T00:58:46;8.20;99.90
16955;DHT22;8594;52.052;8.354;2024-03-02T01:01:13;8.20;99.90
16955;DHT22;8594;52.052;8.354;2024-03-02T01:03:39;8.30;99.90
16955;DHT22;8594;52.052;8.354;2024-03-02T01:06:07;8.30;99.90
16955;DHT22;8594;52.052;8.354;2024-03-02T01:08:35;8.40;99.90
16955;DHT22;8594;52.052;8.354;2024-03-02T01:11:02;8.50;99.90
16955;DHT22;8594;52.052;8.354;2024-03-02T01:13:30;8.60;99.90
16955;DHT22;8594;52.052;8.354;2024-03-02T01:15:58;8.60;99.90
16955;DHT22;8594;52.052;8.354;2024-03-02T01:18:25;8.50;99.90
16955;DHT22;8594;52.052;8.354;2024-03-02T01:20:52;8.60;99.90
16955;DHT22;8594;52.052;8.354;2024-03-02T01:23:21;8.50;99.90
16955;DHT22;8594;52.052;8.354;2024-03-02T01:25:49;8.50;99.90
16955;DHT22;8594;52.052;8.354;2024-03-02T01:28:16;8.50;99.90
16955;DHT22;8594;52.052;8.354;2024-03-02T01:30:42;8.60;99.90
16955;DHT22;8594;52.052;8.354;2024-03-02T01:33:10;8.50;99.90
16955;DHT22;8594;52.052;8.354;2024-03-02T01:35:37;8.40;99.90
16955;DHT22;8594;52.052;8.354;2024-03-02T01:38:04;8.40;99.90
16955;DHT22;8594;52.052;8.354;2024-03-02T01:40:33;8.10;99.90
16955;DHT22;8594;52.052;8.354;2024-03-02T01:43:00;8.20;99.90
16955;DHT22;8594;52.052;8.354;2024-03-02T01:45:27;8.30;99.90
16955;DHT22;8594;52.052;8.354;2024-03-02T01:47:54;8.40;99.90
16955;DHT22;8594;52.052;8.354;2024-03-02T01:50:27;8.30;99.90
16955;DHT22;8594;52.052;8.354;2024-03-02T01:52:54;8.10;99.90
16955;DHT22;8594;52.052;8.354;2024-03-02T01:55:21;8.00;99.90
16955;DHT22;8594;52.052;8.354;2024-03-02T01:57:49;8.00;99.90
16955;DHT22;8594;52.052;8.354;2024-03-02T02:00:18;8.10;99.90
16955;DHT22;8594;52.052;8.354;2024-03-02T02:02:46;8.20;99.90
16955;DHT22;8594;52.052;8.354;2024-03-02T02:05:13;8.10;99.90
16955;DHT22;8594;52.052;8.354;2024-03-02T02:07:41;8.00;99.90
16955;DHT22;8594;52.052;8.354;2024-03-02T02:10:09;7.90;99.90
16955;DHT22;8594;52.052;8.354;2024-03-02T02:12:36;7.90;99.90
16955;DHT22;8594;52.052;8.354;2024-03-02T02:15:04;8.00;99.90
16955;DHT22;8594;52.052;8.354;2024-03-02T02:17:47;7.80;99.90
16955;DHT22;8594;52.052;8.354;2024-03-02T02:20:14;7.60;99.90
16955;DHT22;8594;52.052;8.354;2024-03-02T02:22:53;7.70;99.90
16955;DHT22;8594;52.052;8.354;2024-03-02T02:25:24;7.80;99.90
16955;DHT22;8594;52.052;8.354;2024-03-02T02:27:50;7.80;99.90
16955;DHT22;8594;52.052;8.354;2024-03-02T02:30:21;7.90;99.90
16955;DHT22;8594;52.052;8.354;2024-03-02T02:32:49;7.90;99.90
16955;DHT22;8594;52.052;8.354;2024-03-02T02:35:16;7.80;99.90
16955;DHT22;8594;52.052;8.354;2024-03-02T02:37:45;7.70;99.90
16955;DHT22;8594;52.052;8.354;2024-03-02T02:40:14;7.70;99.90
16955;DHT22;8594;52.052;8.354;2024-03-02T02:42:41;7.70;99.90
16955;DHT22;8594;52.052;8.354;2024-03-02T02:45:08;7.70;99.90
16955;DHT22;8594;52.052;8.354;2024-03-02T02:47:36;7.70;99.90
16955;DHT22;8594;52.052;8.354;2024-03-02T02:50:03;7.70;99.90
16955;DHT22;8594;52.052;8.354;2024-03-02T02:52:31;7.70;99.90
16955;DHT22;8594;52.052;8.354;2024-03-02T02:55:03;7.70;99.90
16955;DHT22;8594;52.052;8.354;2024-03-02T02:57:30;7.80;99.90
16955;DHT22;8594;52.052;8.354;2024-03-02T03:00:01;7.90;99.90
16955;DHT22;8594;52.052;8.354;2024-03-02T03:02:36;7.80;99.90
16955;DHT22;8594;52.052;8.354;2024-03-02T03:05:04;7.80;99.90
16955;DHT22;8594;52.052;8.354;2024-03-02T03:07:31;8.00;99.90
16955;DHT22;8594;52.052;8.354;2024-03-02T03:09:59;8.00;99.90
16955;DHT22;8594;52.052;8.354;2024-03-02T03:12:27;8.10;99.90
16955;DHT22;8594;52.052;8.354;2024-03-02T03:14:54;8.20;99.90
16955;DHT22;8594;52.052;8.354;2024-03-02T03:17:21;8.10;99.90
16955;DHT22;8594;52.052;8.354;2024-03-02T03:19:48;8.10;99.90
16955;DHT22;8594;52.052;8.354;2024-03-02T03:22:14;8.00;99.90
16955;DHT22;8594;52.052;8.354;2024-03-02T03:24:41;8.10;99.90
16955;DHT22;8594;52.052;8.354;2024-03-02T03:27:09;8.20;99.90
16955;DHT22;8594;52.052;8.354;2024-03-02T03:29:37;8.20;99.90
16955;DHT22;8594;52.052;8.354;2024-03-02T03:32:05;8.20;99.90
16955;DHT22;8594;52.052;8.354;2024-03-02T03:34:33;8.40;99.90
16955;DHT22;8594;52.052;8.354;2024-03-02T03:37:00;8.30;99.90
16955;DHT22;8594;52.052;8.354;2024-03-02T03:39:26;8.20;99.90
16955;DHT22;8594;52.052;8.354;2024-03-02T03:41:53;8.20;99.90
16955;DHT22;8594;52.052;8.354;2024-03-02T03:44:20;8.20;99.90
16955;DHT22;8594;52.052;8.354;2024-03-02T03:46:48;8.20;99.90
16955;DHT22;8594;52.052;8.354;2024-03-02T03:49:15;8.20;99.90
16955;DHT22;8594;52.052;8.354;2024-03-02T03:51:42;8.20;99.90
16955;DHT22;8594;52.052;8.354;2024-03-02T03:54:09;8.10;99.90
16955;DHT22;8594;52.052;8.354;2024-03-02T03:56:36;7.90;99.90
16955;DHT22;8594;52.052;8.354;2024-03-02T03:59:03;7.90;99.90
16955;DHT22;8594;52.052;8.354;2024-03-02T04:01:30;8.10;99.90
16955;DHT22;8594;52.052;8.354;2024-03-02T04:03:58;8.00;99.90
16955;DHT22;8594;52.052;8.354;2024-03-02T04:06:27;7.90;99.90
16955;DHT22;8594;52.052;8.354;2024-03-02T04:08:54;7.80;99.90
16955;DHT22;8594;52.052;8.354;2024-03-02T04:11:20;7.90;99.90
16955;DHT22;8594;52.052;8.354;2024-03-02T04:13:47;8.10;99.90
16955;DHT22;8594;52.052;8.354;2024-03-02T04:16:14;8.20;99.90
16955;DHT22;8594;52.052;8.354;2024-03-02T04:18:41;8.20;99.90
16955;DHT22;8594;52.052;8.354;2024-03-02T04:21:09;8.30;99.90
16955;DHT22;8594;52.052;8.354;2024-03-02T04:23:36;8.40;99.90
16955;DHT22;8594;52.052;8.354;2024-03-02T04:26:03;8.20;99.90
16955;DHT22;8594;52.052;8.354;2024-03-02T04:28:30;8.30;99.90
16955;DHT22;8594;52.052;8.354;2024-03-02T04:30:57;8.10;99.90
16955;DHT22;8594;52.052;8.354;2024-03-02T04:33:23;8.10;99.90
16955;DHT22;8594;52.052;8.354;2024-03-02T04:35:50;8.10;99.90
16955;DHT22;8594;52.052;8.354;2024-03-02T04:38:18;8.20;99.90
16955;DHT22;8594;52.052;8.354;2024-03-02T04:40:45;8.30;99.90
16955;DHT22;8594;52.052;8.354;2024-03-02T04:43:11;8.10;99.90
16955;DHT22;8594;52.052;8.354;2024-03-02T04:45:41;8.20;99.90
16955;DHT22;8594;52.052;8.354;2024-03-02T04:48:09;8.20;99.90
16955;DHT22;8594;52.052;8.354;2024-03-02T04:50:35;8.30;99.90
16955;DHT22;8594;52.052;8.354;2024-03-02T04:53:02;8.20;99.90
16955;DHT22;8594;52.052;8.354;2024-03-02T04:55:30;8.10;99.90
16955;DHT22;8594;52.052;8.354;2024-03-02T04:58:23;8.10;99.90
16955;DHT22;8594;52.052;8.354;2024-03-02T05:00:50;8.20;99.90
16955;DHT22;8594;52.052;8.354;2024-03-02T05:03:16;8.30;99.90
16955;DHT22;8594;52.052;8.354;2024-03-02T05:05:43;8.30;99.90
16955;DHT22;8594;52.052;8.354;2024-03-02T05:08:10;8.20;99.90
16955;DHT22;8594;52.052;8.354;2024-03-02T05:10:38;8.20;99.90
16955;DHT22;8594;52.052;8.354;2024-03-02T05:13:05;8.10;99.90
16955;DHT22;8594;52.052;8.354;2024-03-02T05:15:32;8.10;99.90
16955;DHT22;8594;52.052;8.354;2024-03-02T05:17:58;8.00;99.90
16955;DHT22;8594;52.052;8.354;2024-03-02T05:20:28;8.00;99.90
16955;DHT22;8594;52.052;8.354;2024-03-02T05:22:54;8.00;99.90
16955;DHT22;8594;52.052;8.354;2024-03-02T05:25:21;8.10;99.90
16955;DHT22;8594;52.052;8.354;2024-03-02T05:27:49;8.10;99.90
16955;DHT22;8594;52.052;8.354;2024-03-02T05:30:16;7.90;99.90
16955;DHT22;8594;52.052;8.354;2024-03-02T05:32:43;7.80;99.90
16955;DHT22;8594;52.052;8.354;2024-03-02T05:35:09;7.80;99.90
16955;DHT22;8594;52.052;8.354;2024-03-02T05:37:38;7.80;99.90
16955;DHT22;8594;52.052;8.354;2024-03-02T05:40:06;7.90;99.90
16955;DHT22;8594;52.052;8.354;2024-03-02T05:42:33;7.90;99.90
16955;DHT22;8594;52.052;8.354;2024-03-02T05:45:01;8.00;99.90
16955;DHT22;8594;52.052;8.354;2024-03-02T05:47:28;7.90;99.90
16955;DHT22;8594;52.052;8.354;2024-03-02T05:49:55;8.00;99.90
16955;DHT22;8594;52.052;8.354;2024-03-02T05:52:22;8.00;99.90
16955;DHT22;8594;52.052;8.354;2024-03-02T05:54:48;8.00;99.90
16955;DHT22;8594;52.052;8.354;2024-03-02T05:57:15;8.00;99.90
16955;DHT22;8594;52.052;8.354;2024-03-02T05:59:54;8.10;99.90
16955;DHT22;8594;52.052;8.354;2024-03-02T06:02:22;8.00;99.90
16955;DHT22;8594;52.052;8.354;2024-03-02T06:04:49;7.80;99.90
16955;DHT22;8594;52.052;8.354;2024-03-02T06:07:15;7.90;99.90
16955;DHT22;8594;52.052;8.354;2024-03-02T06:09:42;8.00;99.90
16955;DHT22;8594;52.052;8.354;2024-03-02T06:12:10;7.90;99.90
16955;DHT22;8594;52.052;8.354;2024-03-02T06:14:36;7.90;99.90
16955;DHT22;8594;52.052;8.354;2024-03-02T06:17:03;7.90;99.90
16955;DHT22;8594;52.052;8.354;2024-03-02T06:19:31;8.10;99.90
16955;DHT22;8594;52.052;8.354;2024-03-02T06:21:58;8.00;99.90
16955;DHT22;8594;52.052;8.354;2024-03-02T06:24:25;7.90;99.90
16955;DHT22;8594;52.052;8.354;2024-03-02T06:26:52;7.90;99.90
16955;DHT22;8594;52.052;8.354;2024-03-02T06:29:18;7.90;99.90
16955;DHT22;8594;52.052;8.354;2024-03-02T06:31:45;7.90;99.90
16955;DHT22;8594;52.052;8.354;2024-03-02T06:34:12;7.80;99.90
16955;DHT22;8594;52.052;8.354;2024-03-02T06:36:40;8.00;99.90
16955;DHT22;8594;52.052;8.354;2024-03-02T06:39:08;8.10;99.90
16955;DHT22;8594;52.052;8.354;2024-03-02T06:41:35;7.80;99.90
16955;DHT22;8594;52.052;8.354;2024-03-02T06:44:02;8.00;99.90
16955;DHT22;8594;52.052;8.354;2024-03-02T06:46:29;8.10;99.90
16955;DHT22;8594;52.052;8.354;2024-03-02T06:48:56;8.20;99.90
16955;DHT22;8594;52.052;8.354;2024-03-02T06:51:22;8.10;99.90
16955;DHT22;8594;52.052;8.354;2024-03-02T06:53:50;8.10;99.90
16955;DHT22;8594;52.052;8.354;2024-03-02T06:56:17;8.20;99.90
16955;DHT22;8594;52.052;8.354;2024-03-02T06:58:44;8.20;99.90
16955;DHT22;8594;52.052;8.354;2024-03-02T07:01:10;8.10;99.90
16955;DHT22;8594;52.052;8.354;2024-03-02T07:03:37;8.00;99.90
16955;DHT22;8594;52.052;8.354;2024-03-02T07:06:04;7.80;99.90
16955;DHT22;8594;52.052;8.354;2024-03-02T07:08:31;7.90;99.90
16955;DHT22;8594;52.052;8.354;2024-03-02T07:10:59;7.90;99.90
16955;DHT22;8594;52.052;8.354;2024-03-02T07:13:27;8.10;99.90
16955;DHT22;8594;52.052;8.354;2024-03-02T07:15:53;8.00;99.90
16955;DHT22;8594;52.052;8.354;2024-03-02T07:18:37;8.10;99.90
16955;DHT22;8594;52.052;8.354;2024-03-02T07:21:07;8.20;99.90
16955;DHT22;8594;52.052;8.354;2024-03-02T07:23:34;8.10;99.90
16955;DHT22;8594;52.052;8.354;2024-03-02T07:26:02;8.20;99.90
16955;DHT22;8594;52.052;8.354;2024-03-02T07:28:29;8.30;99.90
16955;DHT22;8594;52.052;8.354;2024-03-02T07:30:59;8.30;99.90
16955;DHT22;8594;52.052;8.354;2024-03-02T07:33:26;8.30;99.90
16955;DHT22;8594;52.052;8.354;2024-03-02T07:35:54;8.40;99.90
16955;DHT22;8594;52.052;8.354;2024-03-02T07:38:21;8.60;99.90
16955;DHT22;8594;52.052;8.354;2024-03-02T07:40:48;9.10;99.90
16955;DHT22;8594;52.052;8.354;2024-03-02T07:43:17;9.50;99.90
16955;DHT22;8594;52.052;8.354;2024-03-02T07:45:44;10.00;99.90
16955;DHT22;8594;52.052;8.354;2024-03-02T07:48:11;10.70;99.90
16955;DHT22;8594;52.052;8.354;2024-03-02T07:50:39;11.30;99.90
16955;DHT22;8594;52.052;8.354;2024-03-02T07:53:06;11.30;99.90
16955;DHT22;8594;52.052;8.354;2024-03-02T07:55:33;11.90;99.90
16955;DHT22;8594;52.052;8.354;2024-03-02T07:58:00;12.50;99.90
16955;DHT22;8594;52.052;8.354;2024-03-02T08:00:29;12.80;99.90
16955;DHT22;8594;52.052;8.354;2024-03-02T08:02:56;13.10;99.90
16955;DHT22;8594;52.052;8.354;2024-03-02T08:05:23;13.10;99.90
16955;DHT22;8594;52.052;8.354;2024-03-02T08:07:49;12.90;99.90
16955;DHT22;8594;52.052;8.354;2024-03-02T08:10:18;13.50;99.90
16955;DHT22;8594;52.052;8.354;2024-03-02T08:12:45;13.70;99.90
16955;DHT22;8594;52.052;8.354;2024-03-02T08:15:12;13.90;99.90
16955;DHT22;8594;52.052;8.354;2024-03-02T08:17:41;14.20;99.90
16955;DHT22;8594;52.052;8.354;2024-03-02T08:20:11;14.50;99.90
16955;DHT22;8594;52.052;8.354;2024-03-02T08:22:38;14.70;99.90
16955;DHT22;8594;52.052;8.354;2024-03-02T08:25:05;14.70;99.90
16955;DHT22;8594;52.052;8.354;2024-03-02T08:27:33;14.70;99.90
16955;DHT22;8594;52.052;8.354;2024-03-02T08:30:00;14.40;99.90
16955;DHT22;8594;52.052;8.354;2024-03-02T08:32:29;14.50;99.90
16955;DHT22;8594;52.052;8.354;2024-03-02T08:34:57;14.80;99.90
16955;DHT22;8594;52.052;8.354;2024-03-02T08:37:23;14.90;99.90
16955;DHT22;8594;52.052;8.354;2024-03-02T08:39:50;14.70;99.90
16955;DHT22;8594;52.052;8.354;2024-03-02T08:42:17;14.70;99.90
16955;DHT22;8594;52.052;8.354;2024-03-02T08:44:44;15.00;99.90
16955;DHT22;8594;52.052;8.354;2024-03-02T08:47:10;15.30;99.90
16955;DHT22;8594;52.052;8.354;2024-03-02T08:49:37;15.20;99.90
16955;DHT22;8594;52.052;8.354;2024-03-02T08:52:06;15.60;99.90
16955;DHT22;8594;52.052;8.354;2024-03-02T08:54:32;15.50;99.90
16955;DHT22;8594;52.052;8.354;2024-03-02T08:57:01;15.50;99.90
16955;DHT22;8594;52.052;8.354;2024-03-02T08:59:28;15.40;99.90
16955;DHT22;8594;52.052;8.354;2024-03-02T09:01:54;15.20;99.90
16955;DHT22;8594;52.052;8.354;2024-03-02T09:04:21;15.10;99.90
16955;DHT22;8594;52.052;8.354;2024-03-02T09:06:48;15.30;99.90
16955;DHT22;8594;52.052;8.354;2024-03-02T09:09:16;15.60;99.90
16955;DHT22;8594;52.052;8.354;2024-03-02T09:11:43;16.00;99.90
16955;DHT22;8594;52.052;8.354;2024-03-02T09:14:12;16.20;99.90
16955;DHT22;8594;52.052;8.354;2024-03-02T09:16:40;16.10;99.90
16955;DHT22;8594;52.052;8.354;2024-03-02T09:19:07;16.20;99.90
16955;DHT22;8594;52.052;8.354;2024-03-02T09:21:35;16.40;99.90
16955;DHT22;8594;52.052;8.354;2024-03-02T09:24:01;16.10;99.90
16955;DHT22;8594;52.052;8.354;2024-03-02T09:26:30;15.80;99.90
16955;DHT22;8594;52.052;8.354;2024-03-02T09:28:57;16.10;99.90
16955;DHT22;8594;52.052;8.354;2024-03-02T09:31:23;15.80;99.90
16955;DHT22;8594;52.052;8.354;2024-03-02T09:33:50;15.80;99.90
16955;DHT22;8594;52.052;8.354;2024-03-02T09:36:17;15.90;99.90
16955;DHT22;8594;52.052;8.354;2024-03-02T09:38:45;16.30;99.90
16955;DHT22;8594;52.052;8.354;2024-03-02T09:41:12;16.20;99.90
16955;DHT22;8594;52.052;8.354;2024-03-02T09:43:40;16.20;99.90
16955;DHT22;8594;52.052;8.354;2024-03-02T09:46:09;16.60;99.90
16955;DHT22;8594;52.052;8.354;2024-03-02T09:48:36;16.80;99.90
16955;DHT22;8594;52.052;8.354;2024-03-02T09:51:04;17.10;99.90
16955;DHT22;8594;52.052;8.354;2024-03-02T09:53:32;17.20;99.90
16955;DHT22;8594;52.052;8.354;2024-03-02T09:56:00;17.50;99.90
16955;DHT22;8594;52.052;8.354;2024-03-02T09:58:27;17.50;99.90
16955;DHT22;8594;52.052;8.354;2024-03-02T10:00:55;17.20;99.90
16955;DHT22;8594;52.052;8.354;2024-03-02T10:03:22;16.80;99.90
16955;DHT22;8594;52.052;8.354;2024-03-02T10:05:50;17.20;99.90
16955;DHT22;8594;52.052;8.354;2024-03-02T10:08:17;17.10;99.90
16955;DHT22;8594;52.052;8.354;2024-03-02T10:10:44;17.10;99.90
16955;DHT22;8594;52.052;8.354;2024-03-02T10:13:13;17.70;99.90
16955;DHT22;8594;52.052;8.354;2024-03-02T10:15:41;18.00;99.90
16955;DHT22;8594;52.052;8.354;2024-03-02T10:18:10;18.20;99.90
16955;DHT22;8594;52.052;8.354;2024-03-02T10:20:38;18.10;99.90
16955;DHT22;8594;52.052;8.354;2024-03-02T10:23:12;18.40;99.90
16955;DHT22;8594;52.052;8.354;2024-03-02T10:25:40;17.50;99.90
16955;DHT22;8594;52.052;8.354;2024-03-02T10:28:08;17.50;99.90
16955;DHT22;8594;52.052;8.354;2024-03-02T10:30:35;17.90;99.90
16955;DHT22;8594;52.052;8.354;2024-03-02T10:33:02;18.20;99.90
16955;DHT22;8594;52.052;8.354;2024-03-02T10:35:32;17.70;99.90
16955;DHT22;8594;52.052;8.354;2024-03-02T10:38:03;17.60;99.90
16955;DHT22;8594;52.052;8.354;2024-03-02T10:40:31;17.80;99.90
16955;DHT22;8594;52.052;8.354;2024-03-02T10:42:59;18.00;99.90
16955;DHT22;8594;52.052;8.354;2024-03-02T10:45:28;17.80;99.90
16955;DHT22;8594;52.052;8.354;2024-03-02T10:47:56;18.00;99.90
16955;DHT22;8594;52.052;8.354;2024-03-02T10:50:24;18.20;99.90
16955;DHT22;8594;52.052;8.354;2024-03-02T10:52:52;18.00;99.90
16955;DHT22;8594;52.052;8.354;2024-03-02T10:55:19;18.00;99.90
16955;DHT22;8594;52.052;8.354;2024-03-02T10:57:50;18.10;99.90
16955;DHT22;8594;52.052;8.354;2024-03-02T11:00:19;18.00;99.90
16955;DHT22;8594;52.052;8.354;2024-03-02T11:02:52;18.30;99.90
16955;DHT22;8594;52.052;8.354;2024-03-02T11:05:26;18.20;99.90
16955;DHT22;8594;52.052;8.354;2024-03-02T11:08:01;17.90;99.90
16955;DHT22;8594;52.052;8.354;2024-03-02T11:10:34;17.80;99.90
16955;DHT22;8594;52.052;8.354;2024-03-02T11:13:05;18.10;99.90
16955;DHT22;8594;52.052;8.354;2024-03-02T11:15:35;18.20;99.90
16955;DHT22;8594;52.052;8.354;2024-03-02T11:18:04;18.30;99.90
16955;DHT22;8594;52.052;8.354;2024-03-02T11:20:36;18.20;99.90
16955;DHT22;8594;52.052;8.354;2024-03-02T11:23:07;18.10;99.90
16955;DHT22;8594;52.052;8.354;2024-03-02T11:25:35;17.90;99.90
16955;DHT22;8594;52.052;8.354;2024-03-02T11:28:04;17.70;99.90
16955;DHT22;8594;52.052;8.354;2024-03-02T11:30:50;17.80;99.90
16955;DHT22;8594;52.052;8.354;2024-03-02T11:33:27;17.90;99.90
16955;DHT22;8594;52.052;8.354;2024-03-02T11:35:56;18.30;99.90
16955;DHT22;8594;52.052;8.354;2024-03-02T11:38:32;18.40;99.90
16955;DHT22;8594;52.052;8.354;2024-03-02T11:41:00;17.60;99.90
16955;DHT22;8594;52.052;8.354;2024-03-02T11:43:28;17.40;99.90
16955;DHT22;8594;52.052;8.354;2024-03-02T11:46:00;17.50;99.90
16955;DHT22;8594;52.052;8.354;2024-03-02T11:48:32;17.70;99.90
16955;DHT22;8594;52.052;8.354;2024-03-02T11:51:01;17.80;99.90
16955;DHT22;8594;52.052;8.354;2024-03-02T11:53:30;17.90;99.90
16955;DHT22;8594;52.052;8.354;2024-03-02T11:55:58;17.90;99.90
16955;DHT22;8594;52.052;8.354;2024-03-02T11:58:27;17.90;99.90
16955;DHT22;8594;52.052;8.354;2024-03-02T12:00:54;18.20;99.90
16955;DHT22;8594;52.052;8.354;2024-03-02T12:03:22;18.20;99.90
16955;DHT22;8594;52.052;8.354;2024-03-02T12:05:52;18.10;99.90
16955;DHT22;8594;52.052;8.354;2024-03-02T12:08:19;17.40;99.90
16955;DHT22;8594;52.052;8.354;2024-03-02T12:10:58;17.10;99.90
16955;DHT22;8594;52.052;8.354;2024-03-02T12:13:26;17.00;99.90
16955;DHT22;8594;52.052;8.354;2024-03-02T12:15:53;17.10;99.90
16955;DHT22;8594;52.052;8.354;2024-03-02T12:18:22;17.00;99.90
16955;DHT22;8594;52.052;8.354;2024-03-02T12:20:49;16.90;99.90
16955;DHT22;8594;52.052;8.354;2024-03-02T12:23:18;16.70;99.90
16955;DHT22;8594;52.052;8.354;2024-03-02T12:25:46;16.70;99.90
16955;DHT22;8594;52.052;8.354;2024-03-02T12:28:14;16.60;99.90
16955;DHT22;8594;52.052;8.354;2024-03-02T12:30:42;16.50;99.90
16955;DHT22;8594;52.052;8.354;2024-03-02T12:33:11;16.10;99.90
16955;DHT22;8594;52.052;8.354;2024-03-02T12:35:37;16.10;99.90
16955;DHT22;8594;52.052;8.354;2024-03-02T12:38:05;16.40;99.90
16955;DHT22;8594;52.052;8.354;2024-03-02T12:40:31;16.40;99.90
16955;DHT22;8594;52.052;8.354;2024-03-02T12:42:58;16.10;99.90
16955;DHT22;8594;52.052;8.354;2024-03-02T12:45:26;16.00;99.90
16955;DHT22;8594;52.052;8.354;2024-03-02T12:47:53;16.10;99.90
16955;DHT22;8594;52.052;8.354;2024-03-02T12:50:20;16.30;99.90
16955;DHT22;8594;52.052;8.354;2024-03-02T12:52:51;16.40;99.90
16955;DHT22;8594;52.052;8.354;2024-03-02T12:55:20;16.10;99.90
16955;DHT22;8594;52.052;8.354;2024-03-02T12:57:49;16.10;99.90
16955;DHT22;8594;52.052;8.354;2024-03-02T13:00:18;16.00;99.90
16955;DHT22;8594;52.052;8.354;2024-03-02T13:02:47;16.00;99.90
16955;DHT22;8594;52.052;8.354;2024-03-02T13:05:16;16.40;99.90
16955;DHT22;8594;52.052;8.354;2024-03-02T13:07:42;16.40;99.90
16955;DHT22;8594;52.052;8.354;2024-03-02T13:10:10;16.30;99.90
16955;DHT22;8594;52.052;8.354;2024-03-02T13:12:39;16.40;99.90
16955;DHT22;8594;52.052;8.354;2024-03-02T13:15:06;16.50;99.90
16955;DHT22;8594;52.052;8.354;2024-03-02T13:17:34;16.30;99.90
16955;DHT22;8594;52.052;8.354;2024-03-02T13:20:03;16.30;99.90
16955;DHT22;8594;52.052;8.354;2024-03-02T13:22:33;16.50;99.90
16955;DHT22;8594;52.052;8.354;2024-03-02T13:25:00;16.50;99.90
16955;DHT22;8594;52.052;8.354;2024-03-02T13:27:29;16.30;99.90
16955;DHT22;8594;52.052;8.354;2024-03-02T13:29:56;16.30;99.90
16955;DHT22;8594;52.052;8.354;2024-03-02T13:32:22;16.40;99.90
16955;DHT22;8594;52.052;8.354;2024-03-02T13:34:51;16.40;99.90
16955;DHT22;8594;52.052;8.354;2024-03-02T13:37:19;16.30;99.90
16955;DHT22;8594;52.052;8.354;2024-03-02T13:39:46;16.30;99.90
16955;DHT22;8594;52.052;8.354;2024-03-02T13:42:13;16.50;99.90
16955;DHT22;8594;52.052;8.354;2024-03-02T13:44:43;16.40;99.90
16955;DHT22;8594;52.052;8.354;2024-03-02T13:47:11;16.20;99.90
16955;DHT22;8594;52.052;8.354;2024-03-02T13:49:37;16.30;99.90
16955;DHT22;8594;52.052;8.354;2024-03-02T13:52:09;16.50;99.90
16955;DHT22;8594;52.052;8.354;2024-03-02T13:54:40;16.30;99.90
16955;DHT22;8594;52.052;8.354;2024-03-02T13:57:08;16.50;99.90
16955;DHT22;8594;52.052;8.354;2024-03-02T13:59:36;16.70;99.90
16955;DHT22;8594;52.052;8.354;2024-03-02T14:02:04;16.80;99.90
16955;DHT22;8594;52.052;8.354;2024-03-02T14:04:32;16.90;99.90
16955;DHT22;8594;52.052;8.354;2024-03-02T14:06:59;16.80;99.90
16955;DHT22;8594;52.052;8.354;2024-03-02T14:09:27;16.60;99.90
16955;DHT22;8594;52.052;8.354;2024-03-02T14:11:56;16.40;99.90
16955;DHT22;8594;52.052;8.354;2024-03-02T14:14:23;16.30;99.90
16955;DHT22;8594;52.052;8.354;2024-03-02T14:16:50;16.20;99.90
16955;DHT22;8594;52.052;8.354;2024-03-02T14:19:17;16.30;99.90
16955;DHT22;8594;52.052;8.354;2024-03-02T14:21:44;16.20;99.90
16955;DHT22;8594;52.052;8.354;2024-03-02T14:24:10;15.90;99.90
16955;DHT22;8594;52.052;8.354;2024-03-02T14:26:37;15.70;99.90
16955;DHT22;8594;52.052;8.354;2024-03-02T14:29:05;15.70;99.90
16955;DHT22;8594;52.052;8.354;2024-03-02T14:31:32;15.50;99.90
16955;DHT22;8594;52.052;8.354;2024-03-02T14:33:59;15.40;99.90
16955;DHT22;8594;52.052;8.354;2024-03-02T14:36:26;15.50;99.90
16955;DHT22;8594;52.052;8.354;2024-03-02T14:38:53;15.40;99.90
16955;DHT22;8594;52.052;8.354;2024-03-02T14:41:20;15.50;99.90
16955;DHT22;8594;52.052;8.354;2024-03-02T14:43:49;15.60;99.90
16955;DHT22;8594;52.052;8.354;2024-03-02T14:46:17;15.70;99.90
16955;DHT22;8594;52.052;8.354;2024-03-02T14:48:45;15.80;99.90
16955;DHT22;8594;52.052;8.354;2024-03-02T14:51:13;15.90;99.90
16955;DHT22;8594;52.052;8.354;2024-03-02T14:53:39;15.90;99.90
16955;DHT22;8594;52.052;8.354;2024-03-02T14:56:06;15.90;99.90
16955;DHT22;8594;52.052;8.354;2024-03-02T14:58:33;15.70;99.90
16955;DHT22;8594;52.052;8.354;2024-03-02T15:01:01;15.60;99.90
16955;DHT22;8594;52.052;8.354;2024-03-02T15:03:29;15.90;99.90
16955;DHT22;8594;52.052;8.354;2024-03-02T15:05:56;15.80;99.90
16955;DHT22;8594;52.052;8.354;2024-03-02T15:08:23;15.70;99.90
16955;DHT22;8594;52.052;8.354;2024-03-02T15:10:50;15.60;99.90
16955;DHT22;8594;52.052;8.354;2024-03-02T15:13:16;15.40;99.90
16955;DHT22;8594;52.052;8.354;2024-03-02T15:15:43;15.30;99.90
16955;DHT22;8594;52.052;8.354;2024-03-02T15:18:10;15.00;99.90
16955;DHT22;8594;52.052;8.354;2024-03-02T15:20:38;15.00;99.90
16955;DHT22;8594;52.052;8.354;2024-03-02T15:23:06;15.20;99.90
16955;DHT22;8594;52.052;8.354;2024-03-02T15:25:32;15.40;99.90
16955;DHT22;8594;52.052;8.354;2024-03-02T15:27:59;15.20;99.90
16955;DHT22;8594;52.052;8.354;2024-03-02T15:30:26;15.10;99.90
16955;DHT22;8594;52.052;8.354;2024-03-02T15:32:53;14.90;99.90
16955;DHT22;8594;52.052;8.354;2024-03-02T15:35:19;14.90;99.90
16955;DHT22;8594;52.052;8.354;2024-03-02T15:37:47;15.00;99.90
16955;DHT22;8594;52.052;8.354;2024-03-02T15:40:14;15.10;99.90
16955;DHT22;8594;52.052;8.354;2024-03-02T15:42:41;15.20;99.90
16955;DHT22;8594;52.052;8.354;2024-03-02T15:45:09;15.20;99.90
16955;DHT22;8594;52.052;8.354;2024-03-02T15:47:35;15.00;99.90
16955;DHT22;8594;52.052;8.354;2024-03-02T15:50:03;15.00;99.90
16955;DHT22;8594;52.052;8.354;2024-03-02T15:52:30;15.00;99.90
16955;DHT22;8594;52.052;8.354;2024-03-02T15:54:58;15.10;99.90
16955;DHT22;8594;52.052;8.354;2024-03-02T15:57:27;14.90;99.90
16955;DHT22;8594;52.052;8.354;2024-03-02T15:59:53;14.80;99.90